createdAt,value
2022-08-24T00:01:15.152Z,98071.97
2022-08-24T00:03:49.464Z,98073.59
2022-08-24T00:06:29.694Z,98068.94
2022-08-24T00:09:02.973Z,98069.78
2022-08-24T00:11:37.604Z,98067.81
2022-08-24T00:14:11.512Z,98070.25
2022-08-24T00:16:44.740Z,98070.13
2022-08-24T00:19:18.439Z,98072.69
2022-08-24T00:21:52.223Z,98076.59
2022-08-24T00:24:25.699Z,98068.31
2022-08-24T00:27:00.547Z,98072.63
2022-08-24T00:29:35.126Z,98078.56
2022-08-24T00:32:08.595Z,98081.13
2022-08-24T00:34:41.842Z,98076.75
2022-08-24T00:37:25.545Z,98077.69
2022-08-24T00:39:59.502Z,98079.41
2022-08-24T00:42:34.650Z,98086.16
2022-08-24T00:45:12.045Z,98083.38
2022-08-24T00:47:50.297Z,98080.69
2022-08-24T00:50:28.561Z,98080.78
2022-08-24T00:53:07.870Z,98078.13
2022-08-24T00:55:46.831Z,98080.78
2022-08-24T00:58:27.481Z,98079.59
2022-08-24T01:01:04.425Z,98078.53
2022-08-24T01:03:39.389Z,98082.66
2022-08-24T01:06:14.231Z,98085.13
2022-08-24T01:08:47.414Z,98082.41
2022-08-24T01:11:34.030Z,98083.94
2022-08-24T01:14:09.197Z,98085.47
2022-08-24T01:17:00.532Z,98087.94
2022-08-24T01:19:39.499Z,98082.66
2022-08-24T01:22:55.080Z,98083.44
2022-08-24T01:25:33.728Z,98086.97
2022-08-24T01:28:12.165Z,98081.66
2022-08-24T01:30:46.136Z,98086.63
2022-08-24T01:33:28.620Z,98084.06
2022-08-24T01:36:08.351Z,98085.84
2022-08-24T01:38:42.248Z,98089.13
2022-08-24T01:41:16.959Z,98083.72
2022-08-24T01:43:50.147Z,98084.38
2022-08-24T01:46:23.426Z,98087.59
2022-08-24T01:48:59.094Z,98095.22
2022-08-24T01:51:34.046Z,98094.97
2022-08-24T01:54:09.020Z,98085.31
2022-08-24T01:56:43.943Z,98093.91
2022-08-24T01:59:19.408Z,98088.47
2022-08-24T02:01:58.320Z,98090.75
2022-08-24T02:04:34.364Z,98089.78
2022-08-24T02:07:09.393Z,98086.53
2022-08-24T02:09:43.047Z,98082.81
2022-08-24T02:12:18.598Z,98085.59
2022-08-24T02:14:52.238Z,98085.47
2022-08-24T02:17:25.491Z,98092.38
2022-08-24T02:19:58.800Z,98094.06
2022-08-24T02:22:32.027Z,98104.06
2022-08-24T02:25:06.320Z,98103.03
2022-08-24T02:27:43.166Z,98088.56
2022-08-24T02:30:17.697Z,98098.50
2022-08-24T02:32:51.179Z,98100.91
2022-08-24T02:35:24.915Z,98098.97
2022-08-24T02:37:58.704Z,98096.50
2022-08-24T02:40:32.404Z,98093.84
2022-08-24T02:43:07.274Z,98091.09
2022-08-24T02:45:42.236Z,98094.34
2022-08-24T02:48:15.854Z,98090.16
2022-08-24T02:50:52.117Z,98093.16
2022-08-24T02:53:25.966Z,98093.84
2022-08-24T02:55:59.338Z,98092.56
2022-08-24T02:58:33.972Z,98090.19
2022-08-24T03:01:14.380Z,98096.16
2022-08-24T03:03:57.822Z,98092.06
2022-08-24T03:06:31.383Z,98093.72
2022-08-24T03:09:04.912Z,98105.66
2022-08-24T03:11:38.318Z,98096.09
2022-08-24T03:14:13.225Z,98102.13
2022-08-24T03:16:46.886Z,98095.59
2022-08-24T03:19:20.352Z,98097.81
2022-08-24T03:21:54.300Z,98097.91
2022-08-24T03:24:27.613Z,98087.50
2022-08-24T03:27:00.871Z,98090.19
2022-08-24T03:29:37.192Z,98092.78
2022-08-24T03:32:10.804Z,98088.47
2022-08-24T03:34:43.946Z,98092.00
2022-08-24T03:37:17.377Z,98097.06
2022-08-24T03:39:51.119Z,98099.72
2022-08-24T03:42:24.336Z,98095.38
2022-08-24T03:44:58.831Z,98096.47
2022-08-24T03:47:32.042Z,98089.72
2022-08-24T03:50:08.043Z,98096.47
2022-08-24T03:52:41.716Z,98092.66
2022-08-24T03:55:15.120Z,98090.78
2022-08-24T03:57:48.530Z,98093.97
2022-08-24T04:00:23.477Z,98101.31
2022-08-24T04:02:56.705Z,98099.25
2022-08-24T04:05:30.084Z,98099.88
2022-08-24T04:08:09.439Z,98092.84
2022-08-24T04:10:46.516Z,98097.75
2022-08-24T04:13:19.830Z,98098.59
2022-08-24T04:15:54.546Z,98089.09
2022-08-24T04:18:28.844Z,98103.59
2022-08-24T04:21:02.751Z,98101.75
2022-08-24T04:23:46.570Z,98106.47
2022-08-24T04:26:45.274Z,98106.97
2022-08-24T04:29:20.483Z,98105.59
2022-08-24T04:31:55.684Z,98099.94
2022-08-24T04:34:28.910Z,98107.13
2022-08-24T04:37:02.222Z,98106.63
2022-08-24T04:39:35.360Z,98112.13
2022-08-24T04:42:09.488Z,98102.56
2022-08-24T04:44:42.871Z,98110.66
2022-08-24T04:47:17.667Z,98119.78
2022-08-24T04:49:50.958Z,98119.63
2022-08-24T04:52:24.318Z,98125.50
2022-08-24T04:54:57.599Z,98122.69
2022-08-24T04:57:30.808Z,98123.72
2022-08-24T05:00:09.338Z,98123.94
2022-08-24T05:02:45.222Z,98125.84
2022-08-24T05:05:18.797Z,98126.34
2022-08-24T05:07:56.379Z,98122.03
2022-08-24T05:10:31.854Z,98130.06
2022-08-24T05:13:07.511Z,98130.31
2022-08-24T05:15:44.049Z,98140.50
2022-08-24T05:18:19.503Z,98134.41
2022-08-24T05:20:52.751Z,98136.25
2022-08-24T05:23:26.537Z,98139.41
2022-08-24T05:26:07.242Z,98131.41
2022-08-24T05:28:41.398Z,98115.13
2022-08-24T05:31:18.409Z,98122.22
2022-08-24T05:33:53.426Z,98123.16
2022-08-24T05:36:30.169Z,98134.97
2022-08-24T05:39:10.663Z,98124.78
2022-08-24T05:41:46.653Z,98122.00
2022-08-24T05:44:20.173Z,98130.41
2022-08-24T05:46:54.438Z,98121.34
2022-08-24T05:49:29.756Z,98122.78
2022-08-24T05:52:03.462Z,98126.53
2022-08-24T05:54:36.866Z,98126.91
2022-08-24T05:57:10.193Z,98125.81
2022-08-24T05:59:43.425Z,98128.88
2022-08-24T06:02:17.845Z,98128.91
2022-08-24T06:04:52.634Z,98125.41
2022-08-24T06:07:27.003Z,98132.25
2022-08-24T06:10:14.587Z,98132.06
2022-08-24T06:12:53.760Z,98136.19
2022-08-24T06:15:27.691Z,98144.13
2022-08-24T06:18:01.040Z,98140.84
2022-08-24T06:20:41.957Z,98146.22
2022-08-24T06:23:15.403Z,98138.94
2022-08-24T06:26:06.335Z,98145.81
2022-08-24T06:28:39.874Z,98154.69
2022-08-24T06:31:13.627Z,98142.47
2022-08-24T06:33:47.990Z,98145.09
2022-08-24T06:36:23.473Z,98141.50
2022-08-24T06:38:56.976Z,98139.88
2022-08-24T06:41:31.958Z,98140.31
2022-08-24T06:44:06.115Z,98144.94
2022-08-24T06:46:39.602Z,98148.50
2022-08-24T06:49:12.917Z,98156.47
2022-08-24T06:51:50.755Z,98158.22
2022-08-24T06:54:24.373Z,98151.31
2022-08-24T06:56:58.662Z,98151.25
2022-08-24T06:59:33.639Z,98160.78
2022-08-24T07:02:07.205Z,98150.59
2022-08-24T07:04:40.853Z,98155.88
2022-08-24T07:07:17.289Z,98151.50
2022-08-24T07:09:50.520Z,98151.63
2022-08-24T07:12:23.952Z,98154.25
2022-08-24T07:14:57.293Z,98162.97
2022-08-24T07:17:31.004Z,98163.72
2022-08-24T07:20:05.256Z,98164.56
2022-08-24T07:22:40.179Z,98158.13
2022-08-24T07:25:14.676Z,98155.38
2022-08-24T07:27:47.951Z,98157.81
2022-08-24T07:30:27.461Z,98162.28
2022-08-24T07:33:01.292Z,98161.09
2022-08-24T07:35:35.044Z,98162.59
2022-08-24T07:38:10.116Z,98162.38
2022-08-24T07:41:14.307Z,98160.84
2022-08-24T07:43:42.975Z,98159.31
2022-08-24T07:46:16.940Z,98167.56
2022-08-24T07:49:00.049Z,98170.06
2022-08-24T07:51:44.864Z,98169.97
2022-08-24T07:54:21.932Z,98168.47
2022-08-24T07:56:55.162Z,98168.28
2022-08-24T07:59:28.662Z,98176.28
2022-08-24T08:02:02.210Z,98165.56
2022-08-24T08:04:35.809Z,98171.53
2022-08-24T08:07:09.373Z,98174.94
2022-08-24T08:09:44.635Z,98169.78
2022-08-24T08:12:19.024Z,98168.72
2022-08-24T08:14:52.355Z,98167.03
2022-08-24T08:17:25.797Z,98166.00
2022-08-24T08:19:59.219Z,98165.69
2022-08-24T08:22:50.007Z,98165.75
2022-08-24T08:25:25.091Z,98161.28
2022-08-24T08:28:04.276Z,98151.63
2022-08-24T08:30:46.936Z,98152.16
2022-08-24T08:33:20.766Z,98157.16
2022-08-24T08:36:02.500Z,98153.19
2022-08-24T08:38:37.857Z,98159.84
2022-08-24T08:42:07.710Z,98150.78
2022-08-24T08:44:54.379Z,98159.00
2022-08-24T08:48:34.510Z,98150.13
2022-08-24T08:52:00.309Z,98150.81
2022-08-24T08:54:44.364Z,98148.44
2022-08-24T08:57:45.370Z,98150.72
2022-08-24T09:00:22.384Z,98137.03
2022-08-24T09:03:25.611Z,98137.38
2022-08-24T09:06:50.231Z,98133.50
2022-08-24T09:09:42.987Z,98132.00
2022-08-24T09:12:30.717Z,98123.19
2022-08-24T09:15:37.831Z,98128.13
2022-08-24T09:18:27.985Z,98133.53
2022-08-24T09:21:18.693Z,98132.78
2022-08-24T09:24:17.979Z,98126.16
2022-08-24T09:27:03.115Z,98128.47
2022-08-24T09:30:00.822Z,98122.44
2022-08-24T09:32:50.474Z,98115.44
2022-08-24T09:35:35.060Z,98125.81
2022-08-24T09:38:19.800Z,98125.63
2022-08-24T09:41:32.071Z,98124.84
2022-08-24T09:44:56.705Z,98116.31
2022-08-24T09:48:31.331Z,98124.59
2022-08-24T09:51:45.677Z,98115.66
2022-08-24T09:55:17.259Z,98125.19
2022-08-24T09:58:05.395Z,98107.25
2022-08-24T10:00:46.888Z,98121.84
2022-08-24T10:03:42.521Z,98125.09
2022-08-24T10:06:31.380Z,98105.34
2022-08-24T10:09:24.518Z,98102.72
2022-08-24T10:12:06.824Z,98111.25
2022-08-24T10:14:52.706Z,98095.91
2022-08-24T10:17:44.224Z,98110.25
2022-08-24T10:20:25.214Z,98103.84
2022-08-24T10:23:46.980Z,98106.63
2022-08-24T10:26:33.913Z,98098.22
2022-08-24T10:29:45.565Z,98091.06
2022-08-24T10:32:45.540Z,98100.78
2022-08-24T10:35:27.096Z,98097.22
2022-08-24T10:38:47.916Z,98095.41
2022-08-24T10:42:33.467Z,98084.06
2022-08-24T10:45:21.886Z,98090.09
2022-08-24T10:48:17.994Z,98088.28
2022-08-24T10:51:00.408Z,98081.44
2022-08-24T10:53:34.921Z,98077.56
2022-08-24T10:56:12.844Z,98074.88
2022-08-24T10:58:53.624Z,98079.16
2022-08-24T11:01:32.086Z,98077.31
2022-08-24T11:04:10.555Z,98086.13
2022-08-24T11:07:11.615Z,98074.78
2022-08-24T11:09:53.940Z,98071.38
2022-08-24T11:12:31.063Z,98075.91
2022-08-24T11:15:12.622Z,98082.16
2022-08-24T11:17:57.225Z,98084.16
2022-08-24T11:20:33.719Z,98088.56
2022-08-24T11:23:16.648Z,98079.69
2022-08-24T11:26:00.195Z,98080.72
2022-08-24T11:28:39.131Z,98076.34
2022-08-24T11:31:15.825Z,98067.56
2022-08-24T11:33:53.019Z,98067.16
2022-08-24T11:36:30.640Z,98079.66
2022-08-24T11:39:21.902Z,98068.19
2022-08-24T11:42:00.287Z,98079.97
2022-08-24T11:44:47.096Z,98062.38
2022-08-24T11:47:55.014Z,98071.19
2022-08-24T11:50:35.725Z,98057.19
2022-08-24T11:53:25.741Z,98071.34
2022-08-24T11:56:11.427Z,98086.19
2022-08-24T11:58:56.685Z,98069.69
2022-08-24T12:01:36.575Z,98065.44
2022-08-24T12:04:50.999Z,98058.31
2022-08-24T12:07:44.246Z,98061.75
2022-08-24T12:10:34.592Z,98067.06
2022-08-24T12:13:21.417Z,98062.69
2022-08-24T12:16:05.213Z,98064.59
2022-08-24T12:18:51.698Z,98063.84
2022-08-24T12:21:31.787Z,98062.03
2022-08-24T12:24:08.963Z,98060.22
2022-08-24T12:26:47.381Z,98057.56
2022-08-24T12:29:30.205Z,98052.41
2022-08-24T12:32:08.224Z,98057.53
2022-08-24T12:34:59.357Z,98057.75
2022-08-24T12:37:40.151Z,98042.78
2022-08-24T12:40:23.551Z,98045.38
2022-08-24T12:43:04.669Z,98061.97
2022-08-24T12:45:39.726Z,98054.03
2022-08-24T12:48:21.791Z,98052.44
2022-08-24T12:51:15.125Z,98047.81
2022-08-24T12:54:13.641Z,98048.75
2022-08-24T12:57:15.841Z,98045.03
2022-08-24T12:59:51.779Z,98040.13
2022-08-24T13:02:37.324Z,98036.50
2022-08-24T13:05:20.793Z,98041.63
2022-08-24T13:08:11.186Z,98046.78
2022-08-24T13:10:54.771Z,98043.44
2022-08-24T13:14:07.900Z,98033.94
2022-08-24T13:17:13.475Z,98028.59
2022-08-24T13:20:21.660Z,98035.31
2022-08-24T13:23:08.577Z,98035.16
2022-08-24T13:25:57.029Z,98023.63
2022-08-24T13:28:42.224Z,98030.91
2022-08-24T13:31:31.721Z,98022.00
2022-08-24T13:34:44.225Z,98022.22
2022-08-24T13:37:23.689Z,98029.03
2022-08-24T13:40:16.395Z,98027.34
2022-08-24T13:43:10.273Z,98029.16
2022-08-24T13:45:51.341Z,98024.06
2022-08-24T13:48:43.068Z,98030.16
2022-08-24T13:51:38.797Z,98028.34
2022-08-24T13:54:26.112Z,98020.38
2022-08-24T13:57:16.725Z,98025.63
2022-08-24T14:00:35.850Z,98014.03
2022-08-24T14:03:45.849Z,98011.47
2022-08-24T14:06:32.614Z,98015.94
2022-08-24T14:09:37.409Z,98001.84
2022-08-24T14:12:38.518Z,98012.94
2022-08-24T14:15:23.442Z,98022.44
2022-08-24T14:18:10.643Z,98005.03
2022-08-24T14:21:05.800Z,98018.19
2022-08-24T14:23:53.275Z,98012.97
2022-08-24T14:27:03.035Z,98005.59
2022-08-24T14:29:45.241Z,98004.31
2022-08-24T14:32:32.348Z,98000.16
2022-08-24T14:35:41.375Z,97995.63
2022-08-24T14:38:43.615Z,97983.56
2022-08-24T14:41:25.810Z,97991.34
2022-08-24T14:44:29.337Z,97997.94
2022-08-24T14:47:09.204Z,98004.06
2022-08-24T14:49:52.954Z,97999.88
2022-08-24T14:52:56.056Z,97991.97
2022-08-24T14:55:38.222Z,97997.78
2022-08-24T14:58:36.542Z,97980.00
2022-08-24T15:01:39.167Z,97993.22
2022-08-24T15:04:40.772Z,97983.84
2022-08-24T15:07:30.362Z,97983.28
2022-08-24T15:10:13.684Z,97988.63
2022-08-24T15:12:56.513Z,97978.19
2022-08-24T15:15:39.598Z,97979.88
2022-08-24T15:18:33.621Z,97979.03
2022-08-24T15:21:38.266Z,97981.59
2022-08-24T15:24:31.134Z,97985.09
2022-08-24T15:27:16.672Z,97980.63
2022-08-24T15:29:55.830Z,97972.94
2022-08-24T15:32:45.004Z,97973.03
2022-08-24T15:35:30.050Z,97969.13
2022-08-24T15:38:21.226Z,97976.22
2022-08-24T15:41:07.908Z,97975.47
2022-08-24T15:43:47.085Z,97974.44
2022-08-24T15:46:23.901Z,97978.19
2022-08-24T15:49:03.887Z,97974.56
2022-08-24T15:51:51.807Z,97987.00
2022-08-24T15:54:36.325Z,97976.44
2022-08-24T15:57:27.965Z,97971.97
2022-08-24T16:00:14.548Z,97979.88
2022-08-24T16:02:47.040Z,97982.50
2022-08-24T16:05:38.172Z,97982.53
2022-08-24T16:08:14.651Z,97977.66
2022-08-24T16:10:51.711Z,97977.53
2022-08-24T16:13:30.931Z,97974.84
2022-08-24T16:16:09.091Z,97971.34
2022-08-24T16:18:51.470Z,97972.25
2022-08-24T16:21:33.935Z,97973.13
2022-08-24T16:24:15.010Z,97974.25
2022-08-24T16:27:00.679Z,97978.47
2022-08-24T16:29:56.070Z,97980.38
2022-08-24T16:32:33.336Z,97973.34
2022-08-24T16:35:20.426Z,97982.28
2022-08-24T16:37:55.474Z,97978.03
2022-08-24T16:40:33.145Z,97968.47
2022-08-24T16:43:06.669Z,97982.28
2022-08-24T16:45:40.490Z,97978.91
2022-08-24T16:48:13.885Z,97979.00
2022-08-24T16:50:50.978Z,97981.69
2022-08-24T16:53:25.609Z,97985.13
2022-08-24T16:56:00.640Z,97984.56
2022-08-24T16:58:37.287Z,97982.06
2022-08-24T17:01:11.240Z,97984.63
2022-08-24T17:03:48.284Z,97980.28
2022-08-24T17:06:22.703Z,97996.06
2022-08-24T17:08:55.988Z,97984.88
2022-08-24T17:11:31.033Z,97984.88
2022-08-24T17:14:04.626Z,97985.75
2022-08-24T17:16:52.175Z,97988.38
2022-08-24T17:19:25.896Z,97984.94
2022-08-24T17:21:59.518Z,97995.50
2022-08-24T17:24:33.905Z,97994.63
2022-08-24T17:27:09.276Z,97991.94
2022-08-24T17:29:44.755Z,97994.66
2022-08-24T17:32:18.553Z,97997.38
2022-08-24T17:34:52.061Z,97991.22
2022-08-24T17:37:25.827Z,98004.38
2022-08-24T17:40:00.373Z,98000.94
2022-08-24T17:42:50.187Z,98003.59
2022-08-24T17:45:24.561Z,98007.13
2022-08-24T17:47:58.063Z,98006.31
2022-08-24T17:50:31.420Z,98001.13
2022-08-24T17:53:04.940Z,98007.28
2022-08-24T17:55:38.377Z,98007.31
2022-08-24T17:58:13.548Z,98014.34
2022-08-24T18:00:47.130Z,98015.25
2022-08-24T18:03:20.415Z,98023.13
2022-08-24T18:05:53.702Z,98023.16
2022-08-24T18:08:27.707Z,98034.53
2022-08-24T18:11:01.029Z,98029.34
2022-08-24T18:13:35.810Z,98025.84
2022-08-24T18:16:16.645Z,98024.13
2022-08-24T18:18:53.678Z,98021.50
2022-08-24T18:21:27.025Z,98025.88
2022-08-24T18:24:01.541Z,98031.97
2022-08-24T18:26:35.472Z,98033.69
2022-08-24T18:29:15.234Z,98040.66
2022-08-24T18:31:49.636Z,98031.91
2022-08-24T18:34:23.443Z,98050.19
2022-08-24T18:36:56.700Z,98048.41
2022-08-24T18:39:30.231Z,98050.16
2022-08-24T18:42:08.977Z,98051.00
2022-08-24T18:44:43.882Z,98052.69
2022-08-24T18:47:17.286Z,98051.78
2022-08-24T18:49:50.472Z,98060.50
2022-08-24T18:52:24.126Z,98058.72
2022-08-24T18:54:57.368Z,98064.81
2022-08-24T18:57:30.786Z,98070.88
2022-08-24T19:00:07.383Z,98063.81
2022-08-24T19:02:40.937Z,98070.72
2022-08-24T19:05:18.623Z,98070.69
2022-08-24T19:07:54.650Z,98063.63
2022-08-24T19:10:33.025Z,98070.59
2022-08-24T19:13:10.834Z,98074.88
2022-08-24T19:15:47.604Z,98085.25
2022-08-24T19:18:23.955Z,98079.97
2022-08-24T19:20:59.227Z,98076.47
2022-08-24T19:23:36.423Z,98084.19
2022-08-24T19:26:09.827Z,98083.19
2022-08-24T19:28:42.945Z,98084.03
2022-08-24T19:31:21.566Z,98089.13
2022-08-24T19:33:55.119Z,98082.13
2022-08-24T19:36:30.006Z,98081.09
2022-08-24T19:39:03.657Z,98085.38
2022-08-24T19:41:37.415Z,98080.13
2022-08-24T19:44:28.320Z,98081.84
2022-08-24T19:47:03.244Z,98081.03
2022-08-24T19:49:36.643Z,98083.56
2022-08-24T19:52:11.503Z,98079.13
2022-08-24T19:54:47.853Z,98086.00
2022-08-24T19:57:37.289Z,98086.81
2022-08-24T20:00:37.234Z,98086.69
2022-08-24T20:03:12.116Z,98086.69
2022-08-24T20:05:45.836Z,98090.91
2022-08-24T20:08:20.240Z,98094.34
2022-08-24T20:10:58.656Z,98096.81
2022-08-24T20:13:31.982Z,98092.50
2022-08-24T20:16:07.300Z,98092.47
2022-08-24T20:18:46.175Z,98089.72
2022-08-24T20:21:19.659Z,98086.97
2022-08-24T20:23:53.337Z,98098.97
2022-08-24T20:26:26.508Z,98096.38
2022-08-24T20:28:59.859Z,98098.84
2022-08-24T20:31:33.039Z,98098.53
2022-08-24T20:34:08.151Z,98101.00
2022-08-24T20:36:46.096Z,98095.84
2022-08-24T20:39:24.356Z,98091.47
2022-08-24T20:41:57.799Z,98103.56
2022-08-24T20:44:31.141Z,98092.25
2022-08-24T20:47:04.926Z,98103.38
2022-08-24T20:49:40.086Z,98095.53
2022-08-24T20:52:14.376Z,98095.44
2022-08-24T20:54:47.679Z,98098.84
2022-08-24T20:57:21.559Z,98088.34
2022-08-24T20:59:54.725Z,98094.25
2022-08-24T21:02:28.390Z,98093.22
2022-08-24T21:05:03.012Z,98090.47
2022-08-24T21:07:36.392Z,98091.28
2022-08-24T21:10:10.571Z,98089.56
2022-08-24T21:12:44.124Z,98095.53
2022-08-24T21:15:18.768Z,98100.53
2022-08-24T21:17:52.224Z,98095.22
2022-08-24T21:20:27.780Z,98089.81
2022-08-24T21:23:01.315Z,98097.50
2022-08-24T21:25:34.572Z,98100.03
2022-08-24T21:28:07.892Z,98095.63
2022-08-24T21:30:41.140Z,98097.38
2022-08-24T21:33:32.246Z,98106.78
2022-08-24T21:36:08.590Z,98101.47
2022-08-24T21:38:45.421Z,98107.41
2022-08-24T21:41:18.774Z,98099.31
2022-08-24T21:43:52.647Z,98102.78
2022-08-24T21:46:32.511Z,98104.34
2022-08-24T21:49:06.825Z,98103.47
2022-08-24T21:51:46.637Z,98100.81
2022-08-24T21:54:19.909Z,98095.63
2022-08-24T21:56:53.511Z,98094.69
2022-08-24T21:59:27.185Z,98092.03
2022-08-24T22:02:00.687Z,98096.25
2022-08-24T22:04:35.595Z,98097.00
2022-08-24T22:07:10.526Z,98095.31
2022-08-24T22:09:45.218Z,98088.22
2022-08-24T22:12:18.548Z,98092.47
2022-08-24T22:14:51.692Z,98081.81
2022-08-24T22:17:25.012Z,98080.09
2022-08-24T22:19:58.394Z,98078.44
2022-08-24T22:22:32.873Z,98075.75
2022-08-24T22:25:07.215Z,98074.09
2022-08-24T22:27:41.190Z,98067.19
2022-08-24T22:30:18.270Z,98067.03
2022-08-24T22:32:51.404Z,98074.81
2022-08-24T22:35:24.579Z,98085.00
2022-08-24T22:37:59.715Z,98086.63
2022-08-24T22:40:33.254Z,98089.06
2022-08-24T22:43:06.670Z,98080.28
2022-08-24T22:45:40.296Z,98075.81
2022-08-24T22:48:13.569Z,98080.00
2022-08-24T22:50:47.000Z,98087.59
2022-08-24T22:53:21.560Z,98081.41
2022-08-24T22:55:54.779Z,98082.41
2022-08-24T22:58:28.318Z,98082.22
2022-08-24T23:01:01.484Z,98081.22
2022-08-24T23:03:34.805Z,98084.38
2022-08-24T23:06:08.582Z,98081.94
2022-08-24T23:08:43.872Z,98073.19
2022-08-24T23:11:18.530Z,98075.66
2022-08-24T23:13:52.007Z,98067.00
2022-08-24T23:16:27.541Z,98067.03
2022-08-24T23:19:18.961Z,98065.22
2022-08-24T23:21:52.394Z,98054.97
2022-08-24T23:24:27.031Z,98055.69
2022-08-24T23:27:00.324Z,98063.47
2022-08-24T23:29:34.562Z,98062.47
2022-08-24T23:32:08.614Z,98060.59
2022-08-24T23:34:42.399Z,98057.81
2022-08-24T23:37:16.648Z,98050.13
2022-08-24T23:39:51.366Z,98054.97
2022-08-24T23:42:24.525Z,98053.19
2022-08-24T23:44:57.736Z,98056.50
2022-08-24T23:47:35.774Z,98054.66
2022-08-24T23:50:11.169Z,98061.41
2022-08-24T23:52:44.532Z,98050.00
2022-08-24T23:55:21.404Z,98054.31
2022-08-24T23:57:55.993Z,98045.69
